Time;durP1;ratioP1;P1;durP2;ratioP2;P2;SDS_P1;SDS_P2;PMS_P1;PMS_P2;Temp;Humidity;BMP_temperature;BMP_pressure;BME280_temperature;BME280_humidity;BME280_pressure;Samples;Min_cycle;Max_cycle;Signal;HPM_P1;HPM_P2
2023/07/16 00:01:05;0.00;0.00;0.62;0.00;0.00;0.62;2.40;1.93;;;33.50;26.10;;;;;;2251777;61;20355;-67
2023/07/16 00:03:50;0.00;0.00;0.62;0.00;0.00;0.62;2.30;1.97;;;33.50;26.10;;;;;;2252080;61;20810;-66
2023/07/16 00:06:34;0.00;0.00;0.62;0.00;0.00;0.62;2.30;1.70;;;33.50;26.10;;;;;;2251870;61;20418;-67
2023/07/16 00:09:19;0.00;0.00;0.62;0.00;0.00;0.62;2.20;1.67;;;33.40;26.00;;;;;;2251240;61;20502;-66
2023/07/16 00:12:05;0.00;0.00;0.62;0.00;0.00;0.62;1.80;1.50;;;33.50;26.10;;;;;;2251607;61;20430;-66
2023/07/16 00:14:50;0.00;0.00;0.62;0.00;0.00;0.62;1.90;1.70;;;33.40;26.00;;;;;;2251300;61;20386;-65
2023/07/16 00:17:36;0.00;0.00;0.62;0.00;0.00;0.62;2.27;1.77;;;33.40;26.00;;;;;;2252077;61;20390;-66
2023/07/16 00:20:23;0.00;0.00;0.62;0.00;0.00;0.62;2.77;1.93;;;33.40;26.00;;;;;;2251572;61;20421;-67
2023/07/16 00:23:08;0.00;0.00;0.62;0.00;0.00;0.62;1.93;1.70;;;33.40;26.00;;;;;;2251864;61;20642;-66
2023/07/16 00:25:52;0.00;0.00;0.62;0.00;0.00;0.62;1.80;1.27;;;33.40;26.00;;;;;;2251789;61;20382;-66
2023/07/16 00:28:37;0.00;0.00;0.62;0.00;0.00;0.62;2.53;1.80;;;33.40;26.00;;;;;;2251238;61;20898;-66
2023/07/16 00:31:21;0.00;0.00;0.62;0.00;0.00;0.62;1.93;1.60;;;33.40;26.00;;;;;;2251255;61;20386;-64
2023/07/16 00:34:08;0.00;0.00;0.62;0.00;0.00;0.62;1.83;1.60;;;33.40;26.00;;;;;;2251483;61;20421;-65
2023/07/16 00:36:52;0.00;0.00;0.62;0.00;0.00;0.62;2.00;1.50;;;33.40;26.00;;;;;;2250570;61;20454;-65
2023/07/16 00:39:38;0.00;0.00;0.62;0.00;0.00;0.62;2.47;2.00;;;33.40;26.00;;;;;;2251399;61;20927;-65
2023/07/16 00:42:23;0.00;0.00;0.62;0.00;0.00;0.62;2.40;2.00;;;33.40;26.00;;;;;;2252079;61;20359;-66
2023/07/16 00:45:13;0.00;0.00;0.62;0.00;0.00;0.62;1.70;1.20;;;33.40;26.00;;;;;;2251110;61;20430;-65
2023/07/16 00:47:58;0.00;0.00;0.62;0.00;0.00;0.62;1.77;1.47;;;33.40;26.00;;;;;;2251873;61;20506;-66
2023/07/16 00:50:44;0.00;0.00;0.62;0.00;0.00;0.62;2.80;1.83;;;33.40;26.00;;;;;;2251394;61;20405;-64
2023/07/16 00:53:30;0.00;0.00;0.62;0.00;0.00;0.62;2.20;1.70;;;33.40;26.00;;;;;;2251467;61;20459;-65
2023/07/16 00:56:17;0.00;0.00;0.62;0.00;0.00;0.62;2.10;1.40;;;33.40;26.00;;;;;;2251921;61;20970;-65
2023/07/16 00:59:03;0.00;0.00;0.62;0.00;0.00;0.62;2.50;1.33;;;33.40;26.00;;;;;;2250168;61;20760;-65
2023/07/16 01:01:48;0.00;0.00;0.62;0.00;0.00;0.62;2.10;1.43;;;33.40;26.00;;;;;;2251917;61;20887;-65
2023/07/16 01:04:33;0.00;0.00;0.62;0.00;0.00;0.62;2.57;1.40;;;33.40;26.00;;;;;;2252137;61;20847;-65
2023/07/16 01:07:23;0.00;0.00;0.62;0.00;0.00;0.62;2.63;1.40;;;33.40;26.00;;;;;;2251223;61;20422;-68
2023/07/16 01:10:09;0.00;0.00;0.62;0.00;0.00;0.62;1.80;1.30;;;33.40;26.10;;;;;;2248133;61;20430;-65
2023/07/16 01:12:56;0.00;0.00;0.62;0.00;0.00;0.62;1.60;1.30;;;33.40;26.10;;;;;;2251678;61;20983;-65
2023/07/16 01:15:41;0.00;0.00;0.62;0.00;0.00;0.62;2.67;1.57;;;33.40;26.10;;;;;;2251265;61;20391;-65
2023/07/16 01:18:25;0.00;0.00;0.62;0.00;0.00;0.62;2.13;1.40;;;33.40;26.10;;;;;;2251604;61;20787;-66
2023/07/16 01:21:10;0.00;0.00;0.62;0.00;0.00;0.62;2.20;1.50;;;33.30;26.00;;;;;;2250639;61;20829;-66
2023/07/16 01:24:30;0.00;0.00;0.62;0.00;0.00;0.62;1.50;1.20;;;33.30;26.00;;;;;;2251685;61;20835;-66
2023/07/16 01:27:46;0.00;0.00;0.62;0.00;0.00;0.62;4.03;1.47;;;33.30;26.00;;;;;;2251551;61;20983;-66
2023/07/16 01:30:33;0.00;0.00;0.62;0.00;0.00;0.62;2.00;1.80;;;33.30;26.00;;;;;;2251194;61;20862;-65
2023/07/16 01:33:20;0.00;0.00;0.62;0.00;0.00;0.62;1.70;1.37;;;33.40;26.10;;;;;;2251814;61;20417;-65
2023/07/16 01:36:08;0.00;0.00;0.62;0.00;0.00;0.62;2.43;1.53;;;33.30;26.00;;;;;;2250932;61;20394;-66
2023/07/16 01:38:52;0.00;0.00;0.62;0.00;0.00;0.62;1.80;1.50;;;33.30;26.00;;;;;;2251555;61;20421;-66
2023/07/16 01:41:37;0.00;0.00;0.62;0.00;0.00;0.62;1.80;1.20;;;33.30;26.00;;;;;;2251911;61;20396;-65
2023/07/16 01:44:22;0.00;0.00;0.62;0.00;0.00;0.62;3.90;1.40;;;33.30;26.00;;;;;;2250995;61;20833;-65
2023/07/16 01:47:13;0.00;0.00;0.62;0.00;0.00;0.62;2.30;1.40;;;33.30;26.00;;;;;;2251383;61;20363;-65
2023/07/16 01:49:58;0.00;0.00;0.62;0.00;0.00;0.62;1.80;1.37;;;33.30;26.00;;;;;;2250941;61;20378;-65
2023/07/16 01:52:42;0.00;0.00;0.62;0.00;0.00;0.62;1.90;1.50;;;33.30;26.00;;;;;;2252100;61;20448;-66
2023/07/16 01:55:27;0.00;0.00;0.62;0.00;0.00;0.62;2.37;1.50;;;33.30;26.00;;;;;;2252449;61;20517;-65
2023/07/16 01:58:12;0.00;0.00;0.62;0.00;0.00;0.62;1.67;1.20;;;33.30;26.00;;;;;;2251282;61;20401;-65
2023/07/16 02:00:57;0.00;0.00;0.62;0.00;0.00;0.62;1.87;1.37;;;33.20;26.00;;;;;;2252217;61;20354;-66
2023/07/16 02:03:44;0.00;0.00;0.62;0.00;0.00;0.62;1.73;1.13;;;33.20;26.00;;;;;;2252376;61;20439;-65
2023/07/16 02:06:29;0.00;0.00;0.62;0.00;0.00;0.62;1.60;1.40;;;33.20;26.00;;;;;;2251607;61;20482;-66
2023/07/16 02:09:13;0.00;0.00;0.62;0.00;0.00;0.62;1.67;1.00;;;33.20;26.00;;;;;;2251933;61;20414;-65
2023/07/16 02:11:58;0.00;0.00;0.62;0.00;0.00;0.62;1.60;1.00;;;33.20;26.00;;;;;;2251990;61;20371;-65
2023/07/16 02:14:43;0.00;0.00;0.62;0.00;0.00;0.62;1.80;1.33;;;33.20;26.00;;;;;;2251686;61;20478;-68
2023/07/16 02:17:27;0.00;0.00;0.62;0.00;0.00;0.62;1.80;1.00;;;33.30;26.00;;;;;;2251879;61;20391;-65
2023/07/16 02:20:13;0.00;0.00;0.62;0.00;0.00;0.62;2.03;1.37;;;33.20;26.00;;;;;;2251166;61;20378;-66
2023/07/16 02:22:58;0.00;0.00;0.62;0.00;0.00;0.62;1.50;1.17;;;33.20;26.00;;;;;;2252577;61;20378;-66
2023/07/16 02:25:45;0.00;0.00;0.62;0.00;0.00;0.62;2.17;1.40;;;33.20;26.00;;;;;;2252361;61;20967;-65
2023/07/16 02:28:30;0.00;0.00;0.62;0.00;0.00;0.62;2.00;1.40;;;33.20;26.00;;;;;;2250737;61;20880;-67
2023/07/16 02:31:15;0.00;0.00;0.62;0.00;0.00;0.62;1.70;1.20;;;33.20;26.00;;;;;;2252217;61;20432;-65
2023/07/16 02:33:59;0.00;0.00;0.62;0.00;0.00;0.62;1.50;1.17;;;33.20;26.00;;;;;;2251756;61;20892;-65
2023/07/16 02:36:46;0.00;0.00;0.62;0.00;0.00;0.62;1.53;1.10;;;33.20;26.00;;;;;;2252044;61;20900;-64
2023/07/16 02:39:30;0.00;0.00;0.62;0.00;0.00;0.62;2.57;1.40;;;33.20;26.00;;;;;;2252203;61;20643;-64
2023/07/16 02:42:15;0.00;0.00;0.62;0.00;0.00;0.62;1.50;1.17;;;33.20;26.00;;;;;;2251959;61;20417;-66
2023/07/16 02:45:00;0.00;0.00;0.62;0.00;0.00;0.62;1.60;0.90;;;33.20;26.00;;;;;;2252050;61;20473;-65
2023/07/16 02:47:45;0.00;0.00;0.62;0.00;0.00;0.62;2.43;1.20;;;33.20;26.00;;;;;;2251922;61;20367;-65
2023/07/16 02:50:29;0.00;0.00;0.62;0.00;0.00;0.62;1.40;0.90;;;33.20;26.00;;;;;;2251125;61;21011;-66
2023/07/16 02:53:15;0.00;0.00;0.62;0.00;0.00;0.62;1.77;1.27;;;33.20;26.00;;;;;;2251974;61;20429;-65
2023/07/16 02:56:00;0.00;0.00;0.62;0.00;0.00;0.62;2.80;1.47;;;33.20;26.00;;;;;;2251986;61;20382;-64
2023/07/16 02:58:45;0.00;0.00;0.62;0.00;0.00;0.62;3.17;1.93;;;33.20;26.00;;;;;;2251217;61;20414;-65
2023/07/16 03:01:29;0.00;0.00;0.62;0.00;0.00;0.62;1.90;1.10;;;33.10;25.90;;;;;;2252285;61;21011;-65
2023/07/16 03:04:15;0.00;0.00;0.62;0.00;0.00;0.62;2.27;1.37;;;33.10;25.90;;;;;;2251434;61;20908;-65
2023/07/16 03:06:59;0.00;0.00;0.62;0.00;0.00;0.62;1.73;1.13;;;33.20;26.00;;;;;;2252116;61;20406;-65
2023/07/16 03:09:45;0.00;0.00;0.62;0.00;0.00;0.62;2.07;1.43;;;33.20;26.00;;;;;;2251802;61;20640;-66
2023/07/16 03:12:29;0.00;0.00;0.62;0.00;0.00;0.62;1.93;1.43;;;33.10;25.90;;;;;;2251422;61;20363;-65
2023/07/16 03:15:14;0.00;0.00;0.62;0.00;0.00;0.62;2.23;1.23;;;33.20;26.00;;;;;;2251858;61;20426;-65
2023/07/16 03:17:59;0.00;0.00;0.62;0.00;0.00;0.62;1.77;1.20;;;33.10;25.90;;;;;;2251705;61;20359;-67
2023/07/16 03:20:44;0.00;0.00;0.62;0.00;0.00;0.62;1.90;1.50;;;33.10;25.90;;;;;;2251267;61;20354;-65
2023/07/16 03:23:29;0.00;0.00;0.62;0.00;0.00;0.62;1.70;1.03;;;33.10;25.90;;;;;;2252185;61;20386;-65
2023/07/16 03:26:15;0.00;0.00;0.62;0.00;0.00;0.62;1.97;1.30;;;33.10;25.90;;;;;;2251856;61;20390;-65
2023/07/16 03:29:00;0.00;0.00;0.62;0.00;0.00;0.62;2.13;1.17;;;33.10;25.90;;;;;;2250907;61;20883;-66
2023/07/16 03:31:45;0.00;0.00;0.62;0.00;0.00;0.62;1.90;1.10;;;33.10;25.90;;;;;;2249170;61;20395;-65
2023/07/16 03:34:31;0.00;0.00;0.62;0.00;0.00;0.62;2.23;1.43;;;33.10;25.90;;;;;;2250784;61;20529;-64
2023/07/16 03:37:16;0.00;0.00;0.62;0.00;0.00;0.62;1.90;1.20;;;33.10;25.90;;;;;;2252416;61;20796;-64
2023/07/16 03:40:14;0.00;0.00;0.62;0.00;0.00;0.62;2.20;1.20;;;33.10;25.90;;;;;;2251507;61;20443;-65
2023/07/16 03:43:02;0.00;0.00;0.62;0.00;0.00;0.62;1.93;1.10;;;33.10;25.90;;;;;;2251911;61;20363;-64
2023/07/16 03:45:47;0.00;0.00;0.62;0.00;0.00;0.62;1.87;1.33;;;33.10;25.90;;;;;;2251512;61;20422;-65
2023/07/16 03:48:31;0.00;0.00;0.62;0.00;0.00;0.62;2.07;1.60;;;33.10;25.90;;;;;;2250977;61;20394;-65
2023/07/16 03:51:17;0.00;0.00;0.62;0.00;0.00;0.62;2.00;1.30;;;33.10;25.90;;;;;;2251378;61;20930;-65
2023/07/16 03:54:02;0.00;0.00;0.62;0.00;0.00;0.62;1.70;1.30;;;33.10;25.90;;;;;;2252185;61;20417;-64
2023/07/16 03:56:46;0.00;0.00;0.62;0.00;0.00;0.62;1.73;1.10;;;33.00;25.90;;;;;;2251174;61;20391;-66
2023/07/16 03:59:32;0.00;0.00;0.62;0.00;0.00;0.62;1.80;1.20;;;33.10;25.90;;;;;;2251384;61;20440;-65
2023/07/16 04:02:16;0.00;0.00;0.62;0.00;0.00;0.62;1.87;1.27;;;33.00;25.90;;;;;;2252055;61;20370;-67
2023/07/16 04:05:01;0.00;0.00;0.62;0.00;0.00;0.62;1.50;1.10;;;33.00;25.90;;;;;;2251614;61;20425;-65
2023/07/16 04:07:46;0.00;0.00;0.62;0.00;0.00;0.62;4.30;1.40;;;33.00;25.90;;;;;;2252227;61;20475;-65
2023/07/16 04:10:31;0.00;0.00;0.62;0.00;0.00;0.62;1.70;1.23;;;33.00;25.80;;;;;;2251366;61;20410;-66
2023/07/16 04:13:16;0.00;0.00;0.62;0.00;0.00;0.62;1.90;1.40;;;33.00;25.90;;;;;;2251645;61;20417;-65
2023/07/16 04:16:02;0.00;0.00;0.62;0.00;0.00;0.62;1.67;1.20;;;33.00;25.90;;;;;;2252114;61;20398;-70
2023/07/16 04:18:47;0.00;0.00;0.62;0.00;0.00;0.62;2.07;1.53;;;33.00;25.90;;;;;;2250784;61;20362;-66
2023/07/16 04:21:32;0.00;0.00;0.62;0.00;0.00;0.62;1.70;1.10;;;33.00;25.80;;;;;;2251617;61;20446;-65
2023/07/16 04:24:16;0.00;0.00;0.62;0.00;0.00;0.62;1.70;1.20;;;33.00;25.90;;;;;;2251989;61;20802;-65
2023/07/16 04:27:01;0.00;0.00;0.62;0.00;0.00;0.62;1.57;1.20;;;33.00;25.80;;;;;;2251639;61;20463;-64
2023/07/16 04:29:46;0.00;0.00;0.62;0.00;0.00;0.62;1.73;1.33;;;33.00;25.90;;;;;;2251550;61;20411;-66
2023/07/16 04:32:32;0.00;0.00;0.62;0.00;0.00;0.62;1.80;1.10;;;33.00;25.80;;;;;;2251762;61;20775;-65
2023/07/16 04:35:17;0.00;0.00;0.62;0.00;0.00;0.62;2.97;1.60;;;32.90;25.80;;;;;;2251744;61;20418;-66
2023/07/16 04:38:02;0.00;0.00;0.62;0.00;0.00;0.62;2.10;1.20;;;32.90;25.80;;;;;;2252027;61;20387;-64
2023/07/16 04:40:47;0.00;0.00;0.62;0.00;0.00;0.62;1.63;1.30;;;32.90;25.80;;;;;;2251173;61;20355;-66
2023/07/16 04:43:32;0.00;0.00;0.62;0.00;0.00;0.62;2.03;1.40;;;33.00;26.40;;;;;;2252125;61;20398;-64
2023/07/16 04:46:17;0.00;0.00;0.62;0.00;0.00;0.62;2.10;1.37;;;33.00;25.80;;;;;;2251402;61;20363;-65
2023/07/16 04:49:06;0.00;0.00;0.62;0.00;0.00;0.62;2.40;1.60;;;32.90;25.80;;;;;;2250964;61;20779;-65
2023/07/16 04:51:51;0.00;0.00;0.62;0.00;0.00;0.62;1.90;1.20;;;32.90;25.80;;;;;;2251679;61;20956;-65
2023/07/16 04:54:37;0.00;0.00;0.62;0.00;0.00;0.62;1.90;1.30;;;32.90;25.80;;;;;;2251895;61;20943;-70
2023/07/16 04:57:22;0.00;0.00;0.62;0.00;0.00;0.62;1.93;1.33;;;32.90;25.80;;;;;;2251544;61;20359;-65
2023/07/16 05:00:08;0.00;0.00;0.62;0.00;0.00;0.62;1.77;1.20;;;32.90;25.80;;;;;;2251585;61;20362;-66
2023/07/16 05:02:52;0.00;0.00;0.62;0.00;0.00;0.62;1.90;1.50;;;32.90;25.80;;;;;;2251445;61;20366;-67
2023/07/16 05:05:38;0.00;0.00;0.62;0.00;0.00;0.62;1.60;1.10;;;32.90;25.80;;;;;;2251914;61;20864;-66
2023/07/16 05:08:23;0.00;0.00;0.62;0.00;0.00;0.62;3.73;1.70;;;32.90;25.80;;;;;;2251573;61;20366;-65
2023/07/16 05:11:08;0.00;0.00;0.62;0.00;0.00;0.62;1.70;1.30;;;32.90;25.90;;;;;;2251338;61;20394;-65
2023/07/16 05:13:52;0.00;0.00;0.62;0.00;0.00;0.62;2.03;1.67;;;32.90;25.80;;;;;;2251902;61;20362;-64
2023/07/16 05:16:37;0.00;0.00;0.62;0.00;0.00;0.62;1.80;1.33;;;32.90;25.80;;;;;;2251571;61;20386;-64
2023/07/16 05:19:22;0.00;0.00;0.62;0.00;0.00;0.62;1.83;1.33;;;32.90;25.80;;;;;;2251253;61;20742;-66
2023/07/16 05:22:08;0.00;0.00;0.62;0.00;0.00;0.62;2.00;1.47;;;32.90;25.80;;;;;;2251944;61;20378;-68
2023/07/16 05:24:53;0.00;0.00;0.62;0.00;0.00;0.62;1.87;1.60;;;32.90;25.80;;;;;;2251595;61;20433;-65
2023/07/16 05:27:38;0.00;0.00;0.62;0.00;0.00;0.62;1.93;1.43;;;32.90;25.80;;;;;;2252222;61;20371;-65
2023/07/16 05:30:23;0.00;0.00;0.62;0.00;0.00;0.62;2.30;1.30;;;32.90;25.80;;;;;;2252227;61;20390;-66
2023/07/16 05:33:07;0.00;0.00;0.62;0.00;0.00;0.62;1.80;1.30;;;32.80;25.80;;;;;;2251394;61;20443;-64
2023/07/16 05:35:52;0.00;0.00;0.62;0.00;0.00;0.62;2.03;1.47;;;32.80;25.80;;;;;;2252003;61;20833;-66
2023/07/16 05:38:38;0.00;0.00;0.62;0.00;0.00;0.62;2.00;1.60;;;32.90;25.80;;;;;;2251992;61;20833;-67
2023/07/16 05:41:22;0.00;0.00;0.62;0.00;0.00;0.62;2.77;1.60;;;32.80;25.80;;;;;;2252002;61;20359;-65
2023/07/16 05:44:08;0.00;0.00;0.62;0.00;0.00;0.62;2.00;1.37;;;32.90;25.90;;;;;;2252549;61;20386;-65
2023/07/16 05:46:53;0.00;0.00;0.62;0.00;0.00;0.62;2.30;1.87;;;32.90;25.80;;;;;;2252133;61;20405;-64
2023/07/16 05:49:37;0.00;0.00;0.62;0.00;0.00;0.62;1.83;1.40;;;32.80;25.80;;;;;;2251650;61;20361;-64
2023/07/16 05:52:22;0.00;0.00;0.62;0.00;0.00;0.62;2.00;1.47;;;32.80;25.80;;;;;;2252733;61;20355;-65
2023/07/16 05:55:08;0.00;0.00;0.62;0.00;0.00;0.62;2.10;1.33;;;32.80;25.80;;;;;;2251517;61;20445;-65
2023/07/16 05:57:53;0.00;0.00;0.62;0.00;0.00;0.62;1.73;1.23;;;32.90;25.80;;;;;;2252585;61;20954;-66
2023/07/16 06:00:39;0.00;0.00;0.62;0.00;0.00;0.62;1.70;1.30;;;32.80;25.80;;;;;;2252219;61;20359;-65
2023/07/16 06:03:24;0.00;0.00;0.62;0.00;0.00;0.62;1.70;1.20;;;32.80;25.80;;;;;;2251331;61;20765;-65
2023/07/16 06:06:09;0.00;0.00;0.62;0.00;0.00;0.62;2.10;1.40;;;32.80;25.80;;;;;;2252475;61;20414;-65
2023/07/16 06:08:54;0.00;0.00;0.62;0.00;0.00;0.62;2.00;1.40;;;32.80;25.80;;;;;;2251613;61;20398;-65
2023/07/16 06:11:39;0.00;0.00;0.62;0.00;0.00;0.62;2.17;1.50;;;32.90;25.80;;;;;;2251904;61;20845;-65
2023/07/16 06:14:24;0.00;0.00;0.62;0.00;0.00;0.62;2.00;1.30;;;32.80;25.80;;;;;;2252448;61;20450;-65
2023/07/16 06:17:09;0.00;0.00;0.62;0.00;0.00;0.62;2.10;1.20;;;32.80;25.80;;;;;;2251465;61;20358;-65
2023/07/16 06:19:54;0.00;0.00;0.62;0.00;0.00;0.62;2.23;1.60;;;32.80;25.80;;;;;;2251965;61;20441;-66
2023/07/16 06:22:39;0.00;0.00;0.62;0.00;0.00;0.62;1.50;1.20;;;32.80;25.80;;;;;;2252312;61;20939;-65
2023/07/16 06:25:24;0.00;0.00;0.62;0.00;0.00;0.62;1.80;1.30;;;32.80;25.80;;;;;;2251605;61;20453;-64
2023/07/16 06:28:10;0.00;0.00;0.62;0.00;0.00;0.62;1.90;1.30;;;32.80;25.80;;;;;;2252239;61;20451;-68
2023/07/16 06:30:55;0.00;0.00;0.62;0.00;0.00;0.62;2.10;1.30;;;32.80;25.80;;;;;;2251872;61;20402;-70
2023/07/16 06:33:39;0.00;0.00;0.62;0.00;0.00;0.62;2.30;1.40;;;32.80;25.80;;;;;;2252173;61;20391;-65
2023/07/16 06:36:24;0.00;0.00;0.62;0.00;0.00;0.62;2.00;1.20;;;32.80;25.70;;;;;;2252208;61;20362;-64
2023/07/16 06:39:09;0.00;0.00;0.62;0.00;0.00;0.62;1.70;1.30;;;32.80;25.70;;;;;;2250914;61;20410;-67
2023/07/16 06:41:54;0.00;0.00;0.62;0.00;0.00;0.62;1.97;1.33;;;32.80;25.70;;;;;;2252419;61;20378;-64
2023/07/16 06:44:41;0.00;0.00;0.62;0.00;0.00;0.62;2.57;1.37;;;32.80;25.70;;;;;;2251974;61;20413;-65
2023/07/16 06:47:25;0.00;0.00;0.62;0.00;0.00;0.62;2.33;1.27;;;32.80;25.70;;;;;;2251238;61;20806;-63
2023/07/16 06:50:10;0.00;0.00;0.62;0.00;0.00;0.62;2.00;1.37;;;32.80;25.70;;;;;;2252238;61;20414;-65
2023/07/16 06:52:55;0.00;0.00;0.62;0.00;0.00;0.62;2.30;1.33;;;32.80;25.70;;;;;;2252314;61;20465;-64
2023/07/16 06:55:40;0.00;0.00;0.62;0.00;0.00;0.62;2.20;1.50;;;32.80;25.70;;;;;;2252005;61;20430;-64
2023/07/16 06:58:32;0.00;0.00;0.62;0.00;0.00;0.62;2.13;1.30;;;32.80;25.70;;;;;;2251942;61;20411;-65
2023/07/16 07:01:18;0.00;0.00;0.62;0.00;0.00;0.62;2.40;1.47;;;32.80;25.70;;;;;;2251873;61;20414;-64
2023/07/16 07:04:03;0.00;0.00;0.62;0.00;0.00;0.62;2.40;1.40;;;32.80;25.70;;;;;;2252177;61;20699;-66
2023/07/16 07:06:48;0.00;0.00;0.62;0.00;0.00;0.62;1.70;1.30;;;32.80;25.70;;;;;;2251970;61;20410;-64
2023/07/16 07:09:33;0.00;0.00;0.62;0.00;0.00;0.62;1.83;1.27;;;32.80;25.70;;;;;;2250966;61;20482;-64
2023/07/16 07:12:17;0.00;0.00;0.62;0.00;0.00;0.62;2.30;1.70;;;32.80;25.70;;;;;;2252266;61;20936;-64
2023/07/16 07:15:02;0.00;0.00;0.62;0.00;0.00;0.62;2.17;1.50;;;32.80;25.60;;;;;;2251826;61;20382;-65
2023/07/16 07:17:49;0.00;0.00;0.62;0.00;0.00;0.62;2.00;1.40;;;32.70;25.60;;;;;;2251832;61;20405;-64
2023/07/16 07:20:34;0.00;0.00;0.62;0.00;0.00;0.62;2.30;1.47;;;32.70;25.60;;;;;;2251874;61;20402;-65
2023/07/16 07:23:19;0.00;0.00;0.62;0.00;0.00;0.62;2.20;1.30;;;32.80;25.60;;;;;;2252015;61;20391;-67
2023/07/16 07:26:03;0.00;0.00;0.62;0.00;0.00;0.62;1.80;1.30;;;32.70;25.50;;;;;;2251956;61;20386;-64
2023/07/16 07:28:48;0.00;0.00;0.62;0.00;0.00;0.62;2.10;1.30;;;32.80;25.50;;;;;;2251666;61;20426;-65
2023/07/16 07:31:33;0.00;0.00;0.62;0.00;0.00;0.62;2.13;1.53;;;32.70;25.50;;;;;;2251433;61;20382;-64
2023/07/16 07:34:19;0.00;0.00;0.62;0.00;0.00;0.62;2.20;1.40;;;32.80;25.50;;;;;;2252075;61;20479;-64
2023/07/16 07:37:05;0.00;0.00;0.62;0.00;0.00;0.62;2.50;1.63;;;32.80;25.50;;;;;;2251858;61;20781;-65
2023/07/16 07:39:52;0.00;0.00;0.62;0.00;0.00;0.62;4.93;1.70;;;32.70;25.40;;;;;;2251199;61;20679;-64
2023/07/16 07:42:37;0.00;0.00;0.62;0.00;0.00;0.62;2.00;1.50;;;32.80;25.40;;;;;;2251602;61;20449;-64
2023/07/16 07:45:23;0.00;0.00;0.62;0.00;0.00;0.62;2.47;1.60;;;32.70;25.40;;;;;;2251697;61;20638;-70
2023/07/16 07:48:07;0.00;0.00;0.62;0.00;0.00;0.62;3.70;2.07;;;32.70;25.30;;;;;;2251914;61;20362;-64
2023/07/16 07:50:53;0.00;0.00;0.62;0.00;0.00;0.62;2.20;1.60;;;32.80;25.30;;;;;;2252205;61;20387;-64
2023/07/16 07:53:39;0.00;0.00;0.62;0.00;0.00;0.62;2.90;2.13;;;32.70;25.20;;;;;;2251203;61;20371;-64
2023/07/16 07:56:24;0.00;0.00;0.62;0.00;0.00;0.62;1.87;1.47;;;32.70;25.20;;;;;;2252242;61;20398;-64
2023/07/16 07:59:09;0.00;0.00;0.62;0.00;0.00;0.62;2.00;1.70;;;32.70;25.20;;;;;;2251590;61;20978;-66
2023/07/16 08:01:53;0.00;0.00;0.62;0.00;0.00;0.62;2.73;1.67;;;32.70;25.20;;;;;;2251667;61;20888;-64
2023/07/16 08:04:38;0.00;0.00;0.62;0.00;0.00;0.62;2.60;2.00;;;32.70;25.20;;;;;;2251726;61;20382;-65
2023/07/16 08:07:25;0.00;0.00;0.62;0.00;0.00;0.62;3.07;1.40;;;32.70;25.10;;;;;;2251787;61;20363;-64
2023/07/16 08:10:10;0.00;0.00;0.62;0.00;0.00;0.62;2.80;1.77;;;32.70;25.00;;;;;;2251128;61;20510;-64
2023/07/16 08:12:55;0.00;0.00;0.62;0.00;0.00;0.62;2.40;1.80;;;32.70;25.00;;;;;;2252065;61;20378;-64
2023/07/16 08:15:40;0.00;0.00;0.62;0.00;0.00;0.62;2.67;2.30;;;32.60;25.00;;;;;;2251166;61;20394;-64
2023/07/16 08:18:24;0.00;0.00;0.62;0.00;0.00;0.62;3.53;2.27;;;32.70;25.00;;;;;;2251897;61;20414;-64
2023/07/16 08:21:09;0.00;0.00;0.62;0.00;0.00;0.62;2.17;1.70;;;32.70;24.90;;;;;;2252308;61;20355;-65
2023/07/16 08:23:55;0.00;0.00;0.62;0.00;0.00;0.62;2.33;1.80;;;32.60;24.90;;;;;;2251638;61;20386;-65
2023/07/16 08:26:40;0.00;0.00;0.62;0.00;0.00;0.62;2.07;1.70;;;32.60;25.40;;;;;;2252089;61;20370;-68
2023/07/16 08:29:24;0.00;0.00;0.62;0.00;0.00;0.62;2.70;2.23;;;32.60;24.80;;;;;;2251187;61;20369;-69
2023/07/16 08:32:09;0.00;0.00;0.62;0.00;0.00;0.62;2.27;1.90;;;32.60;24.80;;;;;;2251733;61;20382;-64
2023/07/16 08:34:53;0.00;0.00;0.62;0.00;0.00;0.62;2.50;1.73;;;32.60;24.80;;;;;;2252148;61;20418;-66
2023/07/16 08:37:38;0.00;0.00;0.62;0.00;0.00;0.62;2.93;2.10;;;32.60;24.70;;;;;;2251079;61;20717;-65
2023/07/16 08:40:24;0.00;0.00;0.62;0.00;0.00;0.62;2.90;1.80;;;32.60;24.70;;;;;;2251812;61;20390;-65
2023/07/16 08:43:11;0.00;0.00;0.62;0.00;0.00;0.62;3.00;1.90;;;32.60;24.70;;;;;;2251922;61;20367;-65
2023/07/16 08:45:57;0.00;0.00;0.62;0.00;0.00;0.62;3.50;2.27;;;32.60;24.60;;;;;;2251071;61;20950;-66
2023/07/16 08:48:42;0.00;0.00;0.62;0.00;0.00;0.62;3.93;2.47;;;32.60;24.60;;;;;;2251894;61;20449;-65
2023/07/16 08:51:27;0.00;0.00;0.62;0.00;0.00;0.62;2.70;2.50;;;32.60;24.60;;;;;;2251442;61;20726;-64
2023/07/16 08:54:15;0.00;0.00;0.62;0.00;0.00;0.62;2.77;2.10;;;32.60;24.50;;;;;;2251560;61;20417;-65
2023/07/16 08:57:01;0.00;0.00;0.62;0.00;0.00;0.62;3.13;2.00;;;32.60;24.50;;;;;;2251866;61;20409;-65
2023/07/16 08:59:48;0.00;0.00;0.62;0.00;0.00;0.62;3.77;2.87;;;32.60;24.50;;;;;;2250617;61;20375;-66
2023/07/16 09:02:33;0.00;0.00;0.62;0.00;0.00;0.62;3.53;2.30;;;32.50;24.40;;;;;;2252631;61;20422;-64
2023/07/16 09:05:21;0.00;0.00;0.62;0.00;0.00;0.62;2.60;2.30;;;32.60;24.40;;;;;;2252572;61;20470;-65
2023/07/16 09:08:06;0.00;0.00;0.62;0.00;0.00;0.62;2.80;2.03;;;32.60;24.40;;;;;;2251830;61;20366;-65
2023/07/16 09:10:55;0.00;0.00;0.62;0.00;0.00;0.62;3.30;2.13;;;32.50;24.30;;;;;;2252349;61;20438;-65
2023/07/16 09:13:45;0.00;0.00;0.62;0.00;0.00;0.62;3.00;1.87;;;32.50;24.30;;;;;;2252260;61;20402;-65
2023/07/16 09:16:33;0.00;0.00;0.62;0.00;0.00;0.62;2.33;2.13;;;32.50;24.30;;;;;;2252256;61;20367;-65
2023/07/16 09:19:19;0.00;0.00;0.62;0.00;0.00;0.62;2.40;1.93;;;32.50;24.20;;;;;;2252145;61;20422;-64
2023/07/16 09:22:04;0.00;0.00;0.62;0.00;0.00;0.62;3.60;2.17;;;32.50;24.20;;;;;;2251603;61;20358;-65
2023/07/16 09:24:48;0.00;0.00;0.62;0.00;0.00;0.62;2.80;2.23;;;32.60;24.20;;;;;;2252637;61;20382;-64
2023/07/16 09:27:33;0.00;0.00;0.62;0.00;0.00;0.62;2.33;1.90;;;32.50;24.20;;;;;;2252394;61;20445;-65
2023/07/16 09:30:19;0.00;0.00;0.62;0.00;0.00;0.62;3.97;2.17;;;32.50;24.20;;;;;;2251409;61;20874;-65
2023/07/16 09:33:12;0.00;0.00;0.62;0.00;0.00;0.62;2.57;2.00;;;32.50;24.70;;;;;;2252473;61;20414;-65
2023/07/16 09:35:57;0.00;0.00;0.62;0.00;0.00;0.62;2.47;2.00;;;32.50;24.10;;;;;;2252298;61;20387;-66
2023/07/16 09:38:43;0.00;0.00;0.62;0.00;0.00;0.62;2.57;2.00;;;32.50;24.10;;;;;;2251806;61;20405;-66
2023/07/16 09:41:29;0.00;0.00;0.62;0.00;0.00;0.62;2.53;2.10;;;32.50;24.00;;;;;;2252450;61;20418;-65
2023/07/16 09:44:14;0.00;0.00;0.62;0.00;0.00;0.62;3.20;1.90;;;32.50;24.00;;;;;;2251663;61;20402;-65
2023/07/16 09:47:00;0.00;0.00;0.62;0.00;0.00;0.62;2.30;2.00;;;32.50;24.00;;;;;;2252588;61;20405;-70
2023/07/16 09:49:45;0.00;0.00;0.62;0.00;0.00;0.62;2.27;1.80;;;32.50;24.00;;;;;;2251795;61;20913;-66
2023/07/16 09:52:32;0.00;0.00;0.62;0.00;0.00;0.62;2.93;2.17;;;32.50;24.00;;;;;;2251497;61;20817;-65
2023/07/16 09:55:21;0.00;0.00;0.62;0.00;0.00;0.62;2.63;2.23;;;32.50;24.00;;;;;;2252141;61;20382;-65
2023/07/16 09:58:10;0.00;0.00;0.62;0.00;0.00;0.62;3.10;2.20;;;32.50;24.00;;;;;;2252277;61;20422;-65
2023/07/16 10:00:56;0.00;0.00;0.62;0.00;0.00;0.62;2.33;1.80;;;32.50;24.00;;;;;;2252024;61;20369;-65
2023/07/16 10:03:50;0.00;0.00;0.62;0.00;0.00;0.62;2.80;1.90;;;32.50;24.00;;;;;;2252445;61;20367;-65
2023/07/16 10:06:35;0.00;0.00;0.62;0.00;0.00;0.62;1.90;1.70;;;32.50;24.00;;;;;;2251607;61;20364;-65
2023/07/16 10:09:37;0.00;0.00;0.62;0.00;0.00;0.62;2.60;2.07;;;32.50;24.00;;;;;;2251746;61;20366;-65
2023/07/16 10:12:23;0.00;0.00;0.62;0.00;0.00;0.62;4.00;2.10;;;32.50;24.00;;;;;;2252028;61;20420;-66
2023/07/16 10:15:11;0.00;0.00;0.62;0.00;0.00;0.62;2.40;1.90;;;32.50;24.00;;;;;;2251816;61;20938;-65
2023/07/16 10:17:57;0.00;0.00;0.62;0.00;0.00;0.62;2.70;2.30;;;32.50;24.00;;;;;;2252523;61;20904;-65
2023/07/16 10:20:43;0.00;0.00;0.62;0.00;0.00;0.62;2.70;2.00;;;32.50;24.00;;;;;;2252113;61;20906;-66
2023/07/16 10:23:39;0.00;0.00;0.62;0.00;0.00;0.62;3.20;1.90;;;32.50;24.00;;;;;;2251992;61;20370;-65
2023/07/16 10:26:30;0.00;0.00;0.62;0.00;0.00;0.62;2.53;2.10;;;32.50;24.00;;;;;;2252618;61;20410;-66
2023/07/16 10:29:15;0.00;0.00;0.62;0.00;0.00;0.62;2.27;2.07;;;32.50;24.00;;;;;;2251121;61;20421;-64
2023/07/16 10:32:00;0.00;0.00;0.62;0.00;0.00;0.62;3.13;2.57;;;32.50;24.00;;;;;;2251820;61;20961;-66
2023/07/16 10:34:45;0.00;0.00;0.62;0.00;0.00;0.62;2.57;2.10;;;32.50;24.00;;;;;;2252219;61;20789;-65
2023/07/16 10:37:31;0.00;0.00;0.62;0.00;0.00;0.62;2.50;2.10;;;32.50;24.00;;;;;;2251695;61;20797;-65
2023/07/16 10:40:16;0.00;0.00;0.62;0.00;0.00;0.62;3.80;2.10;;;32.50;24.00;;;;;;2251432;61;20363;-66
2023/07/16 10:43:01;0.00;0.00;0.62;0.00;0.00;0.62;3.00;1.83;;;32.60;24.10;;;;;;2251949;61;20451;-68
2023/07/16 10:45:47;0.00;0.00;0.62;0.00;0.00;0.62;2.53;1.87;;;32.50;24.00;;;;;;2252065;61;20383;-65
2023/07/16 10:48:31;0.00;0.00;0.62;0.00;0.00;0.62;2.43;2.00;;;32.60;24.00;;;;;;2251869;61;20422;-66
2023/07/16 10:51:16;0.00;0.00;0.62;0.00;0.00;0.62;2.30;1.80;;;32.60;24.30;;;;;;2251206;61;20446;-65
2023/07/16 10:54:05;0.00;0.00;0.62;0.00;0.00;0.62;2.43;2.07;;;32.50;24.00;;;;;;2252313;61;20822;-65